Time;durP1;ratioP1;P1;durP2;ratioP2;P2;SDS_P1;SDS_P2;PMS_P1;PMS_P2;Temp;Humidity;BMP_temperature;BMP_pressure;BME280_temperature;BME280_humidity;BME280_pressure;Samples;Min_cycle;Max_cycle;Signal;HPM_P1;HPM_P2
2023/01/04 00:01:18;;;;;;;14.60;13.10;;;9.50;99.90;;;;;;5090779;28;20177;-59
2023/01/04 00:03:44;;;;;;;15.03;13.47;;;8.30;99.90;;;;;;5089358;28;20288;-59
2023/01/04 00:06:11;;;;;;;19.10;16.07;;;8.30;99.90;;;;;;5090757;28;20169;-60
2023/01/04 00:08:37;;;;;;;15.20;13.60;;;8.20;99.90;;;;;;5090643;28;20212;-59
2023/01/04 00:11:10;;;;;;;16.03;14.33;;;8.40;99.90;;;;;;5090710;28;20190;-58
2023/01/04 00:13:35;;;;;;;17.50;14.93;;;8.10;99.90;;;;;;5090823;28;20166;-58
2023/01/04 00:16:11;;;;;;;80.00;21.70;;;10.00;99.90;;;;;;5090534;28;20257;-60
2023/01/04 00:18:38;;;;;;;19.20;16.10;;;8.20;99.90;;;;;;5090517;28;20197;-59
2023/01/04 00:21:30;;;;;;;17.23;15.30;;;7.90;99.90;;;;;;5090981;28;20169;-59
2023/01/04 00:23:58;;;;;;;22.77;17.13;;;8.00;99.90;;;;;;5092483;28;20181;-57
2023/01/04 00:26:31;;;;;;;17.60;15.27;;;8.10;99.90;;;;;;5094292;28;20192;-60
2023/01/04 00:29:05;;;;;;;17.13;15.23;;;8.10;99.90;;;;;;5094023;28;20616;-58
2023/01/04 00:31:32;;;;;;;20.37;15.37;;;8.10;99.90;;;;;;5094640;28;20226;-58
2023/01/04 00:34:01;;;;;;;16.37;14.60;;;8.10;99.90;;;;;;5093853;28;20181;-59
2023/01/04 00:36:27;;;;;;;18.43;15.27;;;8.10;99.90;;;;;;5094334;28;20166;-60
2023/01/04 00:39:05;;;;;;;15.60;13.50;;;8.10;99.90;;;;;;5094066;28;20723;-58
2023/01/04 00:41:43;;;;;;;32.80;16.57;;;8.10;99.90;;;;;;5094435;28;20170;-58
2023/01/04 00:44:09;;;;;;;14.10;12.60;;;8.00;99.90;;;;;;5093682;28;20180;-60
2023/01/04 00:46:35;;;;;;;13.23;11.20;;;8.00;99.90;;;;;;5094208;28;20252;-57
2023/01/04 00:49:02;;;;;;;21.00;13.57;;;8.10;99.90;;;;;;5093665;28;20190;-59
2023/01/04 00:51:29;;;;;;;13.50;12.10;;;8.00;99.90;;;;;;5093950;28;20981;-60
2023/01/04 00:53:55;;;;;;;14.37;12.83;;;8.00;99.90;;;;;;5093753;28;20631;-57
2023/01/04 00:56:21;;;;;;;16.80;13.23;;;8.30;99.90;;;;;;5093668;28;20188;-60
2023/01/04 00:58:47;;;;;;;18.73;12.37;;;8.00;99.90;;;;;;5094125;28;20674;-60
2023/01/04 01:01:12;;;;;;;12.93;11.60;;;7.50;99.90;;;;;;5093267;28;20181;-60
2023/01/04 01:03:38;;;;;;;12.40;11.10;;;8.00;99.90;;;;;;5093460;28;20170;-60
2023/01/04 01:06:05;;;;;;;12.57;10.70;;;7.90;99.90;;;;;;5093592;28;20166;-60
2023/01/04 01:08:35;;;;;;;13.13;11.73;;;8.00;99.90;;;;;;5093780;28;20670;-60
2023/01/04 01:11:06;;;;;;;12.00;10.70;;;7.60;99.90;;;;;;5093076;28;20197;-58
2023/01/04 01:13:32;;;;;;;12.63;11.03;;;7.80;99.90;;;;;;5093516;28;20170;-60
2023/01/04 01:16:06;;;;;;;12.50;11.10;;;4.40;99.90;;;;;;5093588;28;20174;-59
2023/01/04 01:18:33;;;;;;;12.13;10.83;;;7.70;99.90;;;;;;5093471;28;20177;-58
2023/01/04 01:20:59;;;;;;;11.60;10.40;;;7.80;99.90;;;;;;5093311;28;20178;-60
2023/01/04 01:23:24;;;;;;;11.63;10.40;;;7.60;99.90;;;;;;5093030;28;20180;-57
2023/01/04 01:25:50;;;;;;;25.87;11.67;;;7.90;99.90;;;;;;5093264;28;20202;-58
2023/01/04 01:28:16;;;;;;;11.40;10.10;;;;;;;;;;5092896;28;20273;-57
2023/01/04 01:30:42;;;;;;;10.90;9.80;;;7.80;99.90;;;;;;5093138;28;20193;-60
2023/01/04 01:33:08;;;;;;;28.23;11.77;;;7.60;99.90;;;;;;5091796;28;20203;-60
2023/01/04 01:35:34;;;;;;;11.40;10.20;;;7.70;99.90;;;;;;5092970;28;20174;-60
2023/01/04 01:38:01;;;;;;;29.43;12.40;;;8.10;99.90;;;;;;5093326;28;20216;-59
2023/01/04 01:40:27;;;;;;;17.60;11.70;;;7.90;99.90;;;;;;5092690;28;20170;-60
2023/01/04 01:42:52;;;;;;;15.20;12.07;;;7.70;99.90;;;;;;5093162;28;20193;-58
2023/01/04 01:45:29;;;;;;;26.97;13.10;;;7.80;99.90;;;;;;5092449;28;20543;-59
2023/01/04 01:48:00;;;;;;;12.07;10.77;;;7.90;99.90;;;;;;5092961;28;20250;-60
2023/01/04 01:50:31;;;;;;;12.10;10.77;;;7.90;99.90;;;;;;5092732;28;20205;-60
2023/01/04 01:52:59;;;;;;;12.80;11.47;;;7.90;99.90;;;;;;5093260;28;20542;-60
2023/01/04 01:55:25;;;;;;;11.37;10.17;;;7.50;99.90;;;;;;5092504;28;20556;-60
2023/01/04 01:57:54;;;;;;;14.00;12.50;;;7.70;99.90;;;;;;5092596;28;20197;-59
2023/01/04 02:00:19;;;;;;;21.83;12.70;;;7.70;99.90;;;;;;5092587;28;20170;-60
2023/01/04 02:03:06;;;;;;;12.57;11.13;;;7.90;99.90;;;;;;5092714;28;20204;-59
2023/01/04 02:05:33;;;;;;;12.10;10.70;;;7.70;99.90;;;;;;5092234;28;20170;-58
2023/01/04 02:08:01;;;;;;;12.43;11.03;;;7.70;99.90;;;;;;5092201;28;20713;-60
2023/01/04 02:10:27;;;;;;;13.87;12.17;;;7.90;99.90;;;;;;5092197;28;20220;-60
2023/01/04 02:12:53;;;;;;;14.93;11.63;;;;;;;;;;5092207;28;20169;-60
2023/01/04 02:15:22;;;;;;;13.03;11.13;;;7.90;99.90;;;;;;5092177;28;20170;-58
2023/01/04 02:17:56;;;;;;;12.90;11.50;;;7.90;99.90;;;;;;5092174;28;20243;-58
2023/01/04 02:20:57;;;;;;;13.63;11.70;;;8.00;99.90;;;;;;5092263;28;20166;-60
2023/01/04 02:23:31;;;;;;;16.20;13.33;;;7.60;99.90;;;;;;5048647;28;20187;-59
2023/01/04 02:26:15;;;;;;;14.13;12.47;;;4.10;99.90;;;;;;5049454;28;20179;-60
2023/01/04 02:29:04;;;;;;;15.00;12.73;;;7.80;99.90;;;;;;5032275;28;20571;-60
2023/01/04 02:31:44;;;;;;;16.43;12.67;;;8.00;99.90;;;;;;5049344;28;20206;-59
2023/01/04 02:34:25;;;;;;;14.93;12.60;;;8.20;99.90;;;;;;5048289;28;20237;-60
2023/01/04 02:37:06;;;;;;;14.40;12.43;;;8.20;99.90;;;;;;5049361;28;20171;-60
2023/01/04 02:39:48;;;;;;;24.50;14.53;;;7.90;99.90;;;;;;5048834;28;20211;-59
2023/01/04 02:44:51;;;;;;;15.30;12.67;;;7.90;99.90;;;;;;5049239;28;20266;-60
2023/01/04 02:45:14;;;;;;;14.80;12.20;;;7.50;99.90;;;;;;5048422;28;20182;-59
2023/01/04 02:50:31;;;;;;;18.40;13.73;;;7.90;99.90;;;;;;5049075;28;20392;-60
2023/01/04 02:53:00;;;;;;;13.33;11.93;;;7.90;99.90;;;;;;5049237;28;20376;-60
2023/01/04 02:55:45;;;;;;;14.17;12.67;;;7.80;99.90;;;;;;5048579;28;20167;-60
2023/01/04 02:58:49;;;;;;;16.23;12.67;;;7.90;99.90;;;;;;5049130;28;20243;-60
2023/01/04 03:08:03;;;;;;;16.07;12.77;;;7.70;99.90;;;;;;5028627;28;20284;-60
2023/01/04 03:10:44;;;;;;;12.67;11.30;;;7.70;99.90;;;;;;5029004;28;20242;-60
2023/01/04 03:13:27;;;;;;;11.73;10.53;;;7.70;99.90;;;;;;5028551;28;20175;-60
2023/01/04 03:15:58;;;;;;;11.10;9.97;;;7.50;99.90;;;;;;5028787;28;20179;-60
2023/01/04 03:18:28;;;;;;;10.67;9.57;;;7.70;99.90;;;;;;5028442;28;20318;-60
2023/01/04 03:20:57;;;;;;;10.83;9.50;;;7.80;99.90;;;;;;5028838;28;20271;-60
2023/01/04 03:37:47;;;;;;;11.83;9.47;;;7.80;99.90;;;;;;5028860;28;20660;-60
2023/01/04 03:49:09;;;;;;;13.20;9.87;;;7.90;99.90;;;;;;5091271;28;20216;-57
2023/01/04 03:51:37;;;;;;;10.80;9.33;;;7.80;99.90;;;;;;5090706;28;20201;-60
2023/01/04 03:54:39;;;;;;;13.00;10.73;;;7.80;99.90;;;;;;5090681;28;20170;-60
2023/01/04 03:57:06;;;;;;;12.17;10.33;;;7.80;99.90;;;;;;5030066;28;20184;-59
2023/01/04 03:59:38;;;;;;;11.33;10.07;;;7.80;99.90;;;;;;5032549;28;20172;-56
2023/01/04 04:02:06;;;;;;;11.87;10.57;;;7.80;99.90;;;;;;5032105;28;20313;-60
2023/01/04 04:10:00;;;;;;;12.20;9.77;;;7.90;99.90;;;;;;5032253;28;20206;-56
2023/01/04 04:12:26;;;;;;;10.47;9.37;;;7.90;99.90;;;;;;5015521;28;20172;-58
2023/01/04 04:14:51;;;;;;;10.63;9.33;;;7.90;99.90;;;;;;5031640;28;20180;-58
2023/01/04 04:17:16;;;;;;;10.83;9.70;;;7.90;99.90;;;;;;5031592;28;20182;-60
2023/01/04 04:19:42;;;;;;;9.47;8.47;;;7.90;99.90;;;;;;5032034;28;20234;-58
2023/01/04 04:22:08;;;;;;;10.07;8.83;;;7.90;99.90;;;;;;5032021;28;20176;-58
2023/01/04 04:24:33;;;;;;;9.63;8.57;;;8.00;99.90;;;;;;5031276;28;20601;-59
2023/01/04 04:26:59;;;;;;;10.73;9.63;;;7.90;99.90;;;;;;5032002;28;20184;-58
2023/01/04 04:29:24;;;;;;;10.10;8.77;;;7.90;99.90;;;;;;5031580;28;20172;-59
2023/01/04 04:31:50;;;;;;;9.73;8.60;;;7.90;99.90;;;;;;5031811;28;20290;-56
2023/01/04 04:34:16;;;;;;;9.40;8.50;;;7.90;99.90;;;;;;5082930;28;20189;-60
2023/01/04 04:36:41;;;;;;;10.47;8.47;;;7.90;99.90;;;;;;5094591;28;20174;-60
2023/01/04 04:39:07;;;;;;;10.40;9.30;;;8.00;99.90;;;;;;5093742;28;20220;-60
2023/01/04 04:41:40;;;;;;;10.93;9.73;;;8.00;99.90;;;;;;5094241;28;20255;-60
2023/01/04 04:44:10;;;;;;;11.90;10.10;;;8.00;99.90;;;;;;5093892;28;20190;-57
2023/01/04 04:46:35;;;;;;;12.17;10.87;;;8.00;99.90;;;;;;5093924;28;20344;-57
2023/01/04 04:49:01;;;;;;;14.77;12.30;;;7.90;99.90;;;;;;5093795;28;20280;-58
2023/01/04 04:51:27;;;;;;;11.63;10.43;;;8.00;99.90;;;;;;5093558;28;20212;-59
2023/01/04 04:53:52;;;;;;;11.60;10.40;;;7.90;99.90;;;;;;5093750;28;20253;-59
2023/01/04 04:56:18;;;;;;;13.03;11.63;;;7.90;99.90;;;;;;5093531;28;20166;-58
2023/01/04 04:58:43;;;;;;;13.80;12.00;;;7.90;99.90;;;;;;5093897;28;20182;-60
2023/01/04 05:01:09;;;;;;;13.57;11.60;;;7.90;99.90;;;;;;5093447;28;20327;-58
2023/01/04 05:03:35;;;;;;;12.83;11.17;;;7.90;99.90;;;;;;5093805;28;20655;-60
2023/01/04 05:06:01;;;;;;;12.03;10.43;;;7.90;99.90;;;;;;5093665;28;20170;-56
2023/01/04 05:08:27;;;;;;;12.17;10.87;;;7.90;99.90;;;;;;5092807;28;20422;-57
2023/01/04 05:13:20;;;;;;;16.07;14.37;;;7.90;99.90;;;;;;5069906;28;20219;-52
2023/01/04 05:15:48;;;;;;;15.30;13.50;;;7.90;99.90;;;;;;5072587;28;20647;-57
2023/01/04 05:18:16;;;;;;;16.70;13.27;;;7.90;99.90;;;;;;5073057;28;20224;-51
2023/01/04 05:20:42;;;;;;;12.93;10.83;;;7.90;99.90;;;;;;5073267;28;20259;-52
2023/01/04 05:23:10;;;;;;;15.43;12.33;;;7.90;99.90;;;;;;5073258;28;20277;-53
2023/01/04 05:25:36;;;;;;;14.17;12.00;;;7.90;99.90;;;;;;5073114;28;20182;-51
2023/01/04 05:28:02;;;;;;;13.57;11.77;;;7.90;99.90;;;;;;5073444;28;20174;-52
2023/01/04 05:33:11;;;;;;;14.87;12.00;;;7.90;99.90;;;;;;5073335;28;20323;-52
2023/01/04 05:35:37;;;;;;;13.67;12.03;;;7.80;99.90;;;;;;5072873;28;20193;-51
2023/01/04 05:38:03;;;;;;;14.27;11.87;;;7.80;99.90;;;;;;5073308;28;20170;-52
2023/01/04 05:40:28;;;;;;;15.97;12.53;;;7.80;99.90;;;;;;5054956;28;20179;-52
2023/01/04 05:42:54;;;;;;;12.77;11.00;;;7.80;99.90;;;;;;5055178;28;20245;-53
2023/01/04 05:45:20;;;;;;;14.90;12.37;;;7.80;99.90;;;;;;5072421;28;20170;-54
2023/01/04 05:47:51;;;;;;;14.27;11.47;;;7.80;99.90;;;;;;5073558;28;20209;-51
2023/01/04 05:50:19;;;;;;;14.00;11.67;;;7.90;99.90;;;;;;5072937;28;20311;-53
2023/01/04 05:52:44;;;;;;;13.43;11.40;;;7.90;99.90;;;;;;5054841;28;20197;-53
2023/01/04 05:55:10;;;;;;;14.07;11.40;;;7.90;99.90;;;;;;5072304;28;20166;-51
2023/01/04 05:57:36;;;;;;;16.17;12.67;;;7.90;99.90;;;;;;5072955;28;20193;-51
2023/01/04 06:00:04;;;;;;;13.80;11.83;;;7.90;99.90;;;;;;5072835;28;20177;-53
2023/01/04 06:02:30;;;;;;;15.67;12.50;;;7.90;99.90;;;;;;5072460;28;20563;-53
2023/01/04 06:04:56;;;;;;;23.10;14.07;;;7.90;99.90;;;;;;5072864;28;20166;-54
2023/01/04 06:07:23;;;;;;;16.77;12.87;;;7.90;99.90;;;;;;5072178;28;20174;-54
2023/01/04 06:09:49;;;;;;;14.57;12.20;;;7.90;99.90;;;;;;5072304;28;20175;-52
2023/01/04 06:12:14;;;;;;;14.60;11.20;;;7.80;99.90;;;;;;5072588;28;20217;-51
2023/01/04 06:14:40;;;;;;;16.43;12.20;;;7.80;99.90;;;;;;5072137;28;20170;-52
2023/01/04 06:17:06;;;;;;;15.37;13.00;;;7.80;99.90;;;;;;5072678;28;20201;-57
2023/01/04 06:19:32;;;;;;;16.93;13.37;;;7.70;99.90;;;;;;5071820;28;20158;-54
2023/01/04 06:21:58;;;;;;;16.33;13.50;;;7.70;99.90;;;;;;5072385;28;20190;-51
2023/01/04 06:24:24;;;;;;;20.87;12.93;;;7.60;99.90;;;;;;5071455;28;20258;-52
2023/01/04 06:26:49;;;;;;;16.20;12.93;;;7.60;99.90;;;;;;5072257;28;20174;-55
2023/01/04 06:29:15;;;;;;;15.40;11.60;;;7.60;99.90;;;;;;5071826;28;20618;-53
2023/01/04 06:31:41;;;;;;;15.33;12.53;;;7.60;99.90;;;;;;5072116;28;20212;-54
2023/01/04 06:34:06;;;;;;;51.90;15.83;;;7.60;99.90;;;;;;5071957;28;20632;-54
2023/01/04 06:36:32;;;;;;;16.73;13.23;;;7.50;99.90;;;;;;5072225;28;20179;-51
2023/01/04 06:38:59;;;;;;;16.23;12.97;;;7.40;99.90;;;;;;5072315;28;20171;-51
2023/01/04 06:41:25;;;;;;;18.50;13.97;;;7.50;99.90;;;;;;5071815;28;20182;-51
2023/01/04 06:43:51;;;;;;;37.33;14.40;;;7.50;99.90;;;;;;5071688;28;20179;-51
2023/01/04 06:46:16;;;;;;;19.60;13.23;;;7.40;99.90;;;;;;5071686;28;20173;-51
2023/01/04 06:48:42;;;;;;;24.47;13.47;;;7.30;99.90;;;;;;5071866;28;20178;-54
2023/01/04 06:51:08;;;;;;;37.67;13.17;;;7.20;99.90;;;;;;5071280;28;20221;-51
2023/01/04 06:53:33;;;;;;;15.77;11.93;;;7.10;99.90;;;;;;5071356;28;20178;-50
2023/01/04 06:55:59;;;;;;;13.67;11.80;;;7.00;99.90;;;;;;5071169;28;20201;-51
2023/01/04 06:58:24;;;;;;;38.20;14.90;;;6.90;99.90;;;;;;5072226;28;20643;-54
2023/01/04 07:00:51;;;;;;;22.13;14.17;;;7.00;99.90;;;;;;5053829;28;20314;-50
2023/01/04 07:03:17;;;;;;;42.20;15.57;;;6.90;99.90;;;;;;5071640;28;20198;-51
2023/01/04 07:05:43;;;;;;;72.03;15.83;;;6.60;99.90;;;;;;5071479;28;20209;-50
2023/01/04 07:08:09;;;;;;;219.30;20.07;;;6.40;99.90;;;;;;5071136;28;20171;-52
2023/01/04 07:10:35;;;;;;;20.17;11.87;;;6.40;99.90;;;;;;5071481;28;20671;-50
2023/01/04 07:13:01;;;;;;;30.13;13.50;;;6.50;99.90;;;;;;5071291;28;20248;-51
2023/01/04 07:15:27;;;;;;;16.17;12.00;;;6.50;99.90;;;;;;5053306;28;20197;-52
2023/01/04 07:17:53;;;;;;;45.83;13.90;;;6.60;99.90;;;;;;5071112;28;20175;-51
2023/01/04 07:20:19;;;;;;;47.63;15.10;;;6.60;99.90;;;;;;5071609;28;20227;-51
2023/01/04 07:22:44;;;;;;;111.60;16.87;;;6.70;99.90;;;;;;5071181;28;20562;-54
2023/01/04 07:25:10;;;;;;;17.23;13.07;;;6.70;99.90;;;;;;5070858;28;20284;-50
2023/01/04 07:27:35;;;;;;;124.23;17.03;;;6.80;99.90;;;;;;5071301;28;20182;-53
2023/01/04 07:30:01;;;;;;;18.23;13.10;;;6.90;99.90;;;;;;5070994;28;20291;-56
2023/01/04 07:32:26;;;;;;;215.03;20.43;;;6.80;99.90;;;;;;5070302;28;20547;-53
2023/01/04 07:34:52;;;;;;;68.03;17.17;;;6.90;99.90;;;;;;5070409;28;20562;-52
2023/01/04 07:37:17;;;;;;;108.63;17.63;;;6.90;99.90;;;;;;5071456;28;20256;-52
2023/01/04 07:39:43;;;;;;;19.47;12.80;;;6.90;99.90;;;;;;5070817;28;20174;-52
2023/01/04 07:42:10;;;;;;;35.90;13.20;;;7.00;99.90;;;;;;5052349;28;20209;-53
2023/01/04 07:44:36;;;;;;;74.60;15.13;;;7.00;99.90;;;;;;5071029;28;20182;-56
2023/01/04 07:47:01;;;;;;;29.47;12.30;;;7.00;99.90;;;;;;5070932;28;20586;-55
2023/01/04 07:49:27;;;;;;;97.30;16.83;;;6.80;99.90;;;;;;5071041;28;20647;-53
2023/01/04 07:51:53;;;;;;;91.50;16.90;;;7.10;99.90;;;;;;5070932;28;20206;-51
2023/01/04 07:54:18;;;;;;;16.10;12.17;;;7.10;99.90;;;;;;5070893;28;20653;-53
2023/01/04 07:56:45;;;;;;;13.00;10.83;;;7.10;99.90;;;;;;5083080;28;20673;-52
2023/01/04 07:59:13;;;;;;;69.23;15.90;;;7.00;99.90;;;;;;5091255;28;20546;-52
2023/01/04 08:01:39;;;;;;;16.93;12.47;;;7.00;99.90;;;;;;5091154;28;20655;-52
2023/01/04 08:04:05;;;;;;;53.70;13.70;;;7.10;99.90;;;;;;5090661;28;20169;-54
2023/01/04 08:06:31;;;;;;;14.33;12.23;;;7.10;99.90;;;;;;5090798;28;20200;-53
2023/01/04 08:09:00;;;;;;;28.10;12.77;;;7.20;99.90;;;;;;5091137;28;20261;-52
2023/01/04 08:11:26;;;;;;;15.00;12.07;;;7.20;99.90;;;;;;5050380;28;20229;-52
2023/01/04 08:13:51;;;;;;;43.27;13.93;;;7.20;99.90;;;;;;5050211;28;20182;-55
2023/01/04 08:16:23;;;;;;;49.43;13.47;;;7.40;99.90;;;;;;5050711;28;20179;-54
2023/01/04 08:18:53;;;;;;;17.50;12.20;;;7.30;99.90;;;;;;5050683;28;20179;-51
2023/01/04 08:21:19;;;;;;;20.50;12.77;;;7.40;99.90;;;;;;5050703;28;20233;-52
2023/01/04 08:23:45;;;;;;;15.33;11.83;;;7.40;99.90;;;;;;5050270;28;20183;-55
2023/01/04 08:26:13;;;;;;;13.47;10.83;;;7.30;99.90;;;;;;5050566;28;20167;-52
2023/01/04 08:28:39;;;;;;;12.87;10.53;;;7.20;99.90;;;;;;5032603;28;20176;-54
2023/01/04 08:31:17;;;;;;;33.23;12.93;;;7.10;99.90;;;;;;5050592;28;20203;-52
2023/01/04 08:33:44;;;;;;;14.93;11.00;;;7.20;99.90;;;;;;5050209;28;20293;-54
2023/01/04 08:36:16;;;;;;;28.37;12.07;;;7.60;99.90;;;;;;5050528;28;20178;-52
2023/01/04 08:38:41;;;;;;;81.47;14.87;;;7.40;99.90;;;;;;5050680;28;20182;-52
2023/01/04 08:41:07;;;;;;;25.40;12.67;;;7.40;99.90;;;;;;5050632;28;20179;-54
2023/01/04 08:43:34;;;;;;;23.27;12.00;;;7.50;99.90;;;;;;5053957;28;20206;-53
2023/01/04 08:46:00;;;;;;;47.63;13.77;;;7.50;99.90;;;;;;5054115;28;20178;-52
2023/01/04 08:48:26;;;;;;;14.27;11.03;;;7.50;99.90;;;;;;5054385;28;20171;-53
2023/01/04 08:50:51;;;;;;;26.63;13.03;;;7.60;99.90;;;;;;5053936;28;20199;-54
2023/01/04 08:53:17;;;;;;;23.37;11.40;;;7.40;99.90;;;;;;5054420;28;20225;-51
2023/01/04 08:55:48;;;;;;;13.13;10.73;;;7.30;99.90;;;;;;5053255;28;20316;-52
2023/01/04 08:58:14;;;;;;;17.00;11.30;;;7.30;99.90;;;;;;5054148;28;20285;-54
2023/01/04 09:00:40;;;;;;;49.83;13.37;;;7.20;99.90;;;;;;5054292;28;20175;-52
2023/01/04 09:03:05;;;;;;;18.97;11.33;;;7.20;99.90;;;;;;5053599;28;20272;-53
2023/01/04 09:05:31;;;;;;;14.33;11.87;;;7.20;99.90;;;;;;5053593;28;20167;-54
2023/01/04 09:07:59;;;;;;;18.43;11.57;;;7.00;99.90;;;;;;5053612;28;20220;-55
2023/01/04 09:10:24;;;;;;;13.90;10.93;;;6.90;99.90;;;;;;5053700;28;20239;-53
2023/01/04 09:12:50;;;;;;;82.30;15.03;;;6.90;99.90;;;;;;5053411;28;20230;-55
2023/01/04 09:15:17;;;;;;;21.53;11.23;;;7.00;99.90;;;;;;5053565;28;20175;-53
2023/01/04 09:17:43;;;;;;;26.70;11.23;;;7.10;99.90;;;;;;5053754;28;20163;-51
2023/01/04 09:20:08;;;;;;;11.83;10.07;;;7.20;99.90;;;;;;5053755;28;20516;-52
2023/01/04 09:22:34;;;;;;;21.73;11.27;;;7.20;99.90;;;;;;5053190;28;20223;-52
2023/01/04 09:25:00;;;;;;;13.00;10.63;;;7.20;99.90;;;;;;5052857;28;20178;-55
2023/01/04 09:27:25;;;;;;;13.30;11.90;;;7.30;99.90;;;;;;5053603;28;20536;-51
2023/01/04 09:29:51;;;;;;;13.87;10.53;;;7.30;99.90;;;;;;5053030;28;20531;-52
2023/01/04 09:32:16;;;;;;;12.23;10.07;;;7.40;99.90;;;;;;5053312;28;20211;-53
2023/01/04 09:34:42;;;;;;;11.80;10.00;;;7.50;99.90;;;;;;5052930;28;20178;-51
2023/01/04 09:37:08;;;;;;;9.40;8.20;;;7.60;99.90;;;;;;5053524;28;20177;-52
2023/01/04 09:39:33;;;;;;;10.07;9.03;;;7.60;99.90;;;;;;5052947;28;20178;-52
2023/01/04 09:42:04;;;;;;;16.53;10.33;;;7.50;99.90;;;;;;5053162;28;20203;-54
2023/01/04 09:44:42;;;;;;;16.33;10.90;;;7.60;99.90;;;;;;5053053;28;20187;-53
2023/01/04 09:47:31;;;;;;;13.13;11.60;;;7.70;99.90;;;;;;5052922;28;20174;-54
2023/01/04 09:50:01;;;;;;;13.40;11.30;;;7.80;99.90;;;;;;5052508;28;20214;-53
2023/01/04 09:52:48;;;;;;;101.63;21.03;;;7.90;99.90;;;;;;5052670;28;20198;-51
2023/01/04 09:55:19;;;;;;;19.00;11.00;;;7.80;99.90;;;;;;5051644;28;20712;-53
2023/01/04 09:57:54;;;;;;;10.17;9.07;;;7.70;99.90;;;;;;5052781;28;20220;-52
2023/01/04 10:00:34;;;;;;;11.40;10.20;;;7.70;99.90;;;;;;5053031;28;20181;-55
2023/01/04 10:03:24;;;;;;;10.90;9.37;;;8.00;99.90;;;;;;5052691;28;20273;-52
2023/01/04 10:05:53;;;;;;;9.83;8.83;;;8.30;99.90;;;;;;5051888;28;20197;-52
2023/01/04 10:08:19;;;;;;;8.83;7.83;;;8.60;99.90;;;;;;5052263;28;20182;-53
2023/01/04 10:10:50;;;;;;;9.57;8.63;;;8.70;99.90;;;;;;5052569;28;20195;-55
2023/01/04 10:13:22;;;;;;;9.23;8.33;;;9.10;99.90;;;;;;5051983;28;20194;-52
2023/01/04 10:16:01;;;;;;;10.33;9.33;;;9.40;99.90;;;;;;5052210;28;20167;-52
2023/01/04 10:18:29;;;;;;;7.03;6.33;;;9.60;99.90;;;;;;5052336;28;20632;-51
2023/01/04 10:21:20;;;;;;;9.60;8.67;;;9.70;99.90;;;;;;5052532;28;20175;-52
2023/01/04 10:23:57;;;;;;;7.47;6.77;;;9.80;99.90;;;;;;5051796;28;20183;-55
2023/01/04 10:26:32;;;;;;;14.33;10.10;;;9.80;99.90;;;;;;5052355;28;20175;-54
2023/01/04 10:29:06;;;;;;;22.20;14.67;;;9.60;99.90;;;;;;5052125;28;20547;-52
2023/01/04 10:31:42;;;;;;;47.33;11.47;;;9.20;99.90;;;;;;5052327;28;20229;-53
2023/01/04 10:34:34;;;;;;;15.63;9.97;;;8.90;99.90;;;;;;5054347;28;20216;-52
2023/01/04 10:37:09;;;;;;;9.23;8.33;;;8.80;99.90;;;;;;5063117;28;20253;-51
2023/01/04 10:39:35;;;;;;;9.13;8.13;;;8.70;99.90;;;;;;5071227;28;20309;-55
2023/01/04 10:42:12;;;;;;;11.17;10.07;;;8.60;99.90;;;;;;5071907;28;20571;-52
2023/01/04 10:44:51;;;;;;;9.17;8.27;;;8.50;99.90;;;;;;5071615;28;20174;-54
2023/01/04 10:47:29;;;;;;;11.87;10.23;;;8.40;99.90;;;;;;5071903;28;20179;-55
2023/01/04 10:50:06;;;;;;;10.53;9.40;;;8.50;99.90;;;;;;5071552;28;20175;-49
2023/01/04 10:53:07;;;;;;;13.03;9.80;;;8.50;99.90;;;;;;5071529;28;20559;-52
2023/01/04 10:55:59;;;;;;;32.87;10.33;;;8.40;99.90;;;;;;5054628;28;20229;-53
2023/01/04 10:58:40;;;;;;;8.70;7.80;;;8.40;99.90;;;;;;4964038;28;20356;-55
2023/01/04 11:01:22;;;;;;;12.67;8.67;;;8.30;99.90;;;;;;4960339;28;20786;-53
2023/01/04 11:04:30;;;;;;;8.77;7.87;;;8.30;99.90;;;;;;4961001;28;20183;-52
2023/01/04 11:06:58;;;;;;;9.40;8.40;;;8.30;99.90;;;;;;4925139;28;20186;-55
2023/01/04 11:09:32;;;;;;;11.03;8.37;;;8.20;99.90;;;;;;4959578;28;20186;-52
2023/01/04 11:11:58;;;;;;;10.53;8.40;;;8.20;99.90;;;;;;4938591;29;20206;-51
2023/01/04 11:14:24;;;;;;;8.83;7.93;;;8.30;99.90;;;;;;4950453;29;20174;-52
2023/01/04 11:16:57;;;;;;;10.97;8.60;;;8.40;99.90;;;;;;4968333;28;20213;-52
2023/01/04 11:19:23;;;;;;;11.07;8.70;;;8.30;99.90;;;;;;4952085;28;20595;-52
2023/01/04 11:21:57;;;;;;;8.90;8.00;;;8.30;99.90;;;;;;4959256;28;20202;-54
2023/01/04 11:24:27;;;;;;;15.40;13.37;;;8.40;99.90;;;;;;4958484;28;20212;-55
2023/01/04 11:26:55;;;;;;;9.10;8.20;;;8.40;99.90;;;;;;4969167;28;20670;-55
2023/01/04 11:29:39;;;;;;;10.33;7.90;;;8.50;99.90;;;;;;4969975;28;20190;-55
2023/01/04 11:32:23;;;;;;;8.70;7.80;;;8.50;99.90;;;;;;4966658;28;20690;-52
2023/01/04 11:34:56;;;;;;;8.70;7.73;;;8.50;99.90;;;;;;4996390;28;20218;-53
2023/01/04 11:37:34;;;;;;;9.50;8.60;;;8.50;99.90;;;;;;5071061;28;20262;-54
2023/01/04 11:40:17;;;;;;;26.60;8.57;;;8.30;99.90;;;;;;5071200;28;20182;-52
2023/01/04 11:42:44;;;;;;;9.10;7.83;;;8.30;99.90;;;;;;5059518;28;20245;-51
2023/01/04 11:45:19;;;;;;;13.10;8.23;;;8.20;99.90;;;;;;5058870;28;20196;-52
2023/01/04 11:47:51;;;;;;;9.40;6.93;;;8.20;99.90;;;;;;5065730;28;20359;-56
2023/01/04 11:50:37;;;;;;;12.50;11.20;;;8.20;99.90;;;;;;5071119;28;20162;-52
2023/01/04 11:53:20;;;;;;;8.30;7.47;;;8.20;99.90;;;;;;5070734;28;20186;-55
2023/01/04 11:55:46;;;;;;;17.10;9.50;;;8.30;99.90;;;;;;5070626;28;20208;-53
2023/01/04 11:58:13;;;;;;;10.47;8.40;;;8.40;99.90;;;;;;5051827;28;20170;-54
2023/01/04 12:00:56;;;;;;;11.60;9.00;;;8.50;99.90;;;;;;5066690;28;20173;-53
2023/01/04 12:03:37;;;;;;;8.07;7.07;;;8.60;99.90;;;;;;5070755;28;20184;-53
2023/01/04 12:06:12;;;;;;;9.20;7.40;;;8.60;99.90;;;;;;5064990;28;20171;-55
2023/01/04 12:08:38;;;;;;;7.83;7.03;;;8.60;99.90;;;;;;5059432;28;20173;-56
2023/01/04 12:11:05;;;;;;;7.57;6.87;;;8.60;99.90;;;;;;5060384;28;20245;-53
2023/01/04 12:13:32;;;;;;;8.00;7.20;;;8.50;99.90;;;;;;5066703;28;20178;-56
2023/01/04 12:16:24;;;;;;;7.83;7.03;;;8.50;99.90;;;;;;5069419;28;20266;-55
2023/01/04 12:18:50;;;;;;;7.33;6.63;;;8.60;99.90;;;;;;5063508;28;20637;-54
2023/01/04 12:21:20;;;;;;;7.50;6.77;;;8.70;99.90;;;;;;5064943;28;20285;-55
2023/01/04 12:23:46;;;;;;;11.17;10.07;;;9.20;99.90;;;;;;5043034;28;20216;-54
2023/01/04 12:26:12;;;;;;;9.80;8.73;;;8.60;99.90;;;;;;5072859;28;20536;-53
2023/01/04 12:28:41;;;;;;;19.83;16.47;;;8.70;99.90;;;;;;5068103;28;20945;-53
2023/01/04 12:31:19;;;;;;;9.77;8.77;;;8.70;99.90;;;;;;5073865;28;20209;-54
2023/01/04 12:33:50;;;;;;;22.67;17.80;;;8.70;99.90;;;;;;5074259;28;20167;-52
2023/01/04 12:36:37;;;;;;;76.37;53.33;;;8.80;99.90;;;;;;5058698;28;20628;-56
2023/01/04 12:39:14;;;;;;;10.40;9.30;;;8.80;99.90;;;;;;5054376;28;20252;-55
2023/01/04 12:41:40;;;;;;;9.70;8.57;;;8.80;99.90;;;;;;5053869;28;20591;-54
2023/01/04 12:44:33;;;;;;;8.50;7.70;;;8.90;99.90;;;;;;5053587;28;20232;-55
2023/01/04 12:49:50;;;;;;;8.93;8.03;;;8.70;99.90;;;;;;5094772;28;20658;-53
2023/01/04 12:52:17;;;;;;;11.27;9.93;;;8.50;99.90;;;;;;5094368;28;20225;-51
2023/01/04 12:54:49;;;;;;;23.03;20.63;;;8.60;99.90;;;;;;5065360;28;20170;-51
2023/01/04 12:57:15;;;;;;;9.93;8.40;;;8.60;99.90;;;;;;5063562;28;20666;-54
2023/01/04 12:59:54;;;;;;;8.93;8.03;;;8.70;99.90;;;;;;5073125;28;20166;-52
2023/01/04 13:02:26;;;;;;;8.63;7.70;;;8.70;99.90;;;;;;5066978;28;20221;-56
2023/01/04 13:05:00;;;;;;;8.43;7.60;;;8.70;99.90;;;;;;5056497;28;20263;-52
2023/01/04 13:07:42;;;;;;;7.87;7.07;;;8.80;99.90;;;;;;5064337;28;20253;-51
2023/01/04 13:10:19;;;;;;;10.33;8.83;;;8.80;99.90;;;;;;5071660;28;20676;-52
2023/01/04 13:13:00;;;;;;;8.53;7.63;;;8.80;99.90;;;;;;5071842;28;20704;-53
2023/01/04 13:16:06;;;;;;;7.47;6.70;;;8.80;99.90;;;;;;5057863;28;20183;-52
2023/01/04 13:18:34;;;;;;;7.70;6.90;;;8.80;99.90;;;;;;4964492;28;20190;-51
2023/01/04 13:21:50;;;;;;;8.23;7.43;;;8.90;99.90;;;;;;4971887;28;20178;-52
2023/01/04 13:24:27;;;;;;;7.73;6.93;;;9.00;99.90;;;;;;4952315;29;20198;-55
2023/01/04 13:26:54;;;;;;;9.43;8.43;;;9.10;99.90;;;;;;4949142;29;20653;-53
2023/01/04 13:29:28;;;;;;;7.53;6.73;;;9.10;99.90;;;;;;4937720;29;20195;-54
2023/01/04 13:32:10;;;;;;;9.33;7.20;;;9.40;99.90;;;;;;4917798;29;20230;-51
2023/01/04 13:34:45;;;;;;;8.80;7.90;;;9.10;99.90;;;;;;4936099;29;20673;-54
2023/01/04 13:37:12;;;;;;;9.27;8.37;;;9.00;99.90;;;;;;4941926;29;20186;-52
2023/01/04 13:39:44;;;;;;;8.13;7.33;;;8.80;99.90;;;;;;4942702;29;20222;-53
2023/01/04 13:42:31;;;;;;;8.07;7.13;;;8.80;99.90;;;;;;4949221;29;20222;-53
2023/01/04 13:45:26;;;;;;;8.20;7.40;;;8.90;99.90;;;;;;4951973;29;20187;-52
2023/01/04 13:47:57;;;;;;;8.67;7.87;;;8.90;99.90;;;;;;4952495;29;20186;-55